sensor_id;sensor_type;location;lat;lon;timestamp;P1;durP1;ratioP1;P2;durP2;ratioP2
8488;SDS011;4281;45.772;12.852;2022-09-09T00:01:22;7.30;;;2.97;;
8488;SDS011;4281;45.772;12.852;2022-09-09T00:04:00;3.83;;;2.47;;
8488;SDS011;4281;45.772;12.852;2022-09-09T00:06:43;4.57;;;2.27;;
8488;SDS011;4281;45.772;12.852;2022-09-09T00:09:14;3.60;;;2.40;;
8488;SDS011;4281;45.772;12.852;2022-09-09T00:11:45;5.00;;;2.43;;
8488;SDS011;4281;45.772;12.852;2022-09-09T00:14:18;3.63;;;2.47;;
8488;SDS011;4281;45.772;12.852;2022-09-09T00:16:52;5.47;;;2.60;;
8488;SDS011;4281;45.772;12.852;2022-09-09T00:19:24;4.83;;;2.60;;
8488;SDS011;4281;45.772;12.852;2022-09-09T00:22:02;3.20;;;2.33;;
8488;SDS011;4281;45.772;12.852;2022-09-09T00:24:42;3.87;;;2.50;;
8488;SDS011;4281;45.772;12.852;2022-09-09T00:27:16;5.43;;;2.60;;
8488;SDS011;4281;45.772;12.852;2022-09-09T00:29:51;3.10;;;2.40;;
8488;SDS011;4281;45.772;12.852;2022-09-09T00:32:22;3.50;;;2.33;;
8488;SDS011;4281;45.772;12.852;2022-09-09T00:34:56;3.10;;;2.20;;
8488;SDS011;4281;45.772;12.852;2022-09-09T00:37:30;3.57;;;2.20;;
8488;SDS011;4281;45.772;12.852;2022-09-09T00:40:02;4.07;;;2.27;;
8488;SDS011;4281;45.772;12.852;2022-09-09T00:42:43;2.13;;;2.00;;
8488;SDS011;4281;45.772;12.852;2022-09-09T00:45:17;2.70;;;2.10;;
8488;SDS011;4281;45.772;12.852;2022-09-09T00:47:58;3.27;;;2.20;;
8488;SDS011;4281;45.772;12.852;2022-09-09T00:50:39;3.40;;;2.40;;
8488;SDS011;4281;45.772;12.852;2022-09-09T00:53:28;5.17;;;2.47;;
8488;SDS011;4281;45.772;12.852;2022-09-09T00:56:08;4.80;;;2.30;;
8488;SDS011;4281;45.772;12.852;2022-09-09T00:58:42;3.07;;;2.30;;
8488;SDS011;4281;45.772;12.852;2022-09-09T01:01:16;2.90;;;2.00;;
8488;SDS011;4281;45.772;12.852;2022-09-09T01:03:46;4.10;;;2.30;;
8488;SDS011;4281;45.772;12.852;2022-09-09T01:06:21;3.27;;;1.90;;
8488;SDS011;4281;45.772;12.852;2022-09-09T01:09:04;4.23;;;2.17;;
8488;SDS011;4281;45.772;12.852;2022-09-09T01:11:43;3.70;;;2.20;;
8488;SDS011;4281;45.772;12.852;2022-09-09T01:14:29;3.97;;;2.07;;
8488;SDS011;4281;45.772;12.852;2022-09-09T01:17:08;1.80;;;1.70;;
8488;SDS011;4281;45.772;12.852;2022-09-09T01:19:45;2.13;;;1.70;;
8488;SDS011;4281;45.772;12.852;2022-09-09T01:22:26;2.57;;;1.70;;
8488;SDS011;4281;45.772;12.852;2022-09-09T01:25:16;3.80;;;1.80;;
8488;SDS011;4281;45.772;12.852;2022-09-09T01:27:52;2.10;;;1.60;;
8488;SDS011;4281;45.772;12.852;2022-09-09T01:30:25;2.07;;;1.70;;
8488;SDS011;4281;45.772;12.852;2022-09-09T01:32:56;1.77;;;1.57;;
8488;SDS011;4281;45.772;12.852;2022-09-09T01:35:29;2.40;;;1.60;;
8488;SDS011;4281;45.772;12.852;2022-09-09T01:38:04;3.27;;;1.50;;
8488;SDS011;4281;45.772;12.852;2022-09-09T01:40:33;2.83;;;1.43;;
8488;SDS011;4281;45.772;12.852;2022-09-09T01:43:03;1.97;;;1.50;;
8488;SDS011;4281;45.772;12.852;2022-09-09T01:45:33;2.53;;;1.50;;
8488;SDS011;4281;45.772;12.852;2022-09-09T01:48:02;1.63;;;1.50;;
8488;SDS011;4281;45.772;12.852;2022-09-09T01:50:30;2.50;;;1.33;;
8488;SDS011;4281;45.772;12.852;2022-09-09T01:52:59;2.43;;;1.70;;
8488;SDS011;4281;45.772;12.852;2022-09-09T01:55:30;3.20;;;1.87;;
8488;SDS011;4281;45.772;12.852;2022-09-09T01:58:09;2.33;;;1.67;;
8488;SDS011;4281;45.772;12.852;2022-09-09T02:00:48;4.67;;;2.13;;
8488;SDS011;4281;45.772;12.852;2022-09-09T02:03:23;2.87;;;2.13;;
8488;SDS011;4281;45.772;12.852;2022-09-09T02:05:56;4.00;;;1.80;;
8488;SDS011;4281;45.772;12.852;2022-09-09T02:08:33;3.40;;;2.30;;
8488;SDS011;4281;45.772;12.852;2022-09-09T02:11:09;2.27;;;1.90;;
8488;SDS011;4281;45.772;12.852;2022-09-09T02:13:43;4.20;;;2.60;;
8488;SDS011;4281;45.772;12.852;2022-09-09T02:16:14;3.57;;;2.60;;
8488;SDS011;4281;45.772;12.852;2022-09-09T02:18:50;4.87;;;2.90;;
8488;SDS011;4281;45.772;12.852;2022-09-09T02:21:23;4.00;;;2.87;;
8488;SDS011;4281;45.772;12.852;2022-09-09T02:23:54;3.80;;;3.13;;
8488;SDS011;4281;45.772;12.852;2022-09-09T02:26:26;4.03;;;3.50;;
8488;SDS011;4281;45.772;12.852;2022-09-09T02:28:56;7.47;;;3.33;;
8488;SDS011;4281;45.772;12.852;2022-09-09T02:31:28;4.83;;;2.93;;
8488;SDS011;4281;45.772;12.852;2022-09-09T02:34:01;4.70;;;2.80;;
8488;SDS011;4281;45.772;12.852;2022-09-09T02:36:33;5.60;;;3.20;;
8488;SDS011;4281;45.772;12.852;2022-09-09T02:39:03;4.20;;;3.27;;
8488;SDS011;4281;45.772;12.852;2022-09-09T02:41:35;4.57;;;2.93;;
8488;SDS011;4281;45.772;12.852;2022-09-09T02:44:09;4.10;;;2.93;;
8488;SDS011;4281;45.772;12.852;2022-09-09T02:46:56;6.93;;;3.60;;
8488;SDS011;4281;45.772;12.852;2022-09-09T02:49:47;3.37;;;2.63;;
8488;SDS011;4281;45.772;12.852;2022-09-09T02:52:26;5.73;;;2.73;;
8488;SDS011;4281;45.772;12.852;2022-09-09T02:55:02;3.70;;;2.57;;
8488;SDS011;4281;45.772;12.852;2022-09-09T02:57:36;3.87;;;2.77;;
8488;SDS011;4281;45.772;12.852;2022-09-09T03:00:07;3.40;;;2.60;;
8488;SDS011;4281;45.772;12.852;2022-09-09T03:02:37;2.77;;;2.50;;
8488;SDS011;4281;45.772;12.852;2022-09-09T03:05:06;4.07;;;2.67;;
8488;SDS011;4281;45.772;12.852;2022-09-09T03:07:35;3.73;;;2.60;;
8488;SDS011;4281;45.772;12.852;2022-09-09T03:10:04;4.73;;;2.63;;
8488;SDS011;4281;45.772;12.852;2022-09-09T03:12:33;3.40;;;2.53;;
8488;SDS011;4281;45.772;12.852;2022-09-09T03:15:01;4.63;;;2.37;;
8488;SDS011;4281;45.772;12.852;2022-09-09T03:17:31;5.03;;;2.60;;
8488;SDS011;4281;45.772;12.852;2022-09-09T03:20:01;3.70;;;2.20;;
8488;SDS011;4281;45.772;12.852;2022-09-09T03:22:30;5.13;;;2.60;;
8488;SDS011;4281;45.772;12.852;2022-09-09T03:24:58;2.80;;;2.50;;
8488;SDS011;4281;45.772;12.852;2022-09-09T03:27:26;4.67;;;2.50;;
8488;SDS011;4281;45.772;12.852;2022-09-09T03:29:55;4.73;;;2.70;;
8488;SDS011;4281;45.772;12.852;2022-09-09T03:32:24;2.80;;;2.30;;
8488;SDS011;4281;45.772;12.852;2022-09-09T03:34:54;4.00;;;2.13;;
8488;SDS011;4281;45.772;12.852;2022-09-09T03:37:23;3.27;;;2.30;;
8488;SDS011;4281;45.772;12.852;2022-09-09T03:39:51;8.37;;;2.60;;
8488;SDS011;4281;45.772;12.852;2022-09-09T03:42:20;4.80;;;2.67;;
8488;SDS011;4281;45.772;12.852;2022-09-09T03:44:49;3.50;;;2.40;;
8488;SDS011;4281;45.772;12.852;2022-09-09T03:47:18;3.70;;;2.60;;
8488;SDS011;4281;45.772;12.852;2022-09-09T03:49:48;5.50;;;2.60;;
8488;SDS011;4281;45.772;12.852;2022-09-09T03:52:17;3.47;;;2.60;;
8488;SDS011;4281;45.772;12.852;2022-09-09T03:54:49;3.13;;;2.63;;
8488;SDS011;4281;45.772;12.852;2022-09-09T03:57:17;3.17;;;2.60;;
8488;SDS011;4281;45.772;12.852;2022-09-09T03:59:45;4.33;;;2.50;;
8488;SDS011;4281;45.772;12.852;2022-09-09T04:02:14;4.43;;;2.80;;
8488;SDS011;4281;45.772;12.852;2022-09-09T04:04:42;5.30;;;2.43;;
8488;SDS011;4281;45.772;12.852;2022-09-09T04:07:11;3.40;;;2.40;;
8488;SDS011;4281;45.772;12.852;2022-09-09T04:09:40;5.43;;;2.50;;
8488;SDS011;4281;45.772;12.852;2022-09-09T04:12:09;4.27;;;2.43;;
8488;SDS011;4281;45.772;12.852;2022-09-09T04:14:39;4.90;;;2.40;;
8488;SDS011;4281;45.772;12.852;2022-09-09T04:17:08;2.70;;;2.50;;
8488;SDS011;4281;45.772;12.852;2022-09-09T04:19:36;3.17;;;2.50;;
8488;SDS011;4281;45.772;12.852;2022-09-09T04:22:04;3.50;;;2.43;;
8488;SDS011;4281;45.772;12.852;2022-09-09T04:24:32;2.63;;;2.33;;
8488;SDS011;4281;45.772;12.852;2022-09-09T04:27:03;2.97;;;2.67;;
8488;SDS011;4281;45.772;12.852;2022-09-09T04:29:31;3.63;;;2.63;;
8488;SDS011;4281;45.772;12.852;2022-09-09T04:32:00;4.40;;;2.90;;
8488;SDS011;4281;45.772;12.852;2022-09-09T04:34:29;3.47;;;2.40;;
8488;SDS011;4281;45.772;12.852;2022-09-09T04:36:58;4.07;;;2.60;;
8488;SDS011;4281;45.772;12.852;2022-09-09T04:39:26;4.27;;;2.50;;
8488;SDS011;4281;45.772;12.852;2022-09-09T04:41:55;3.33;;;2.63;;
8488;SDS011;4281;45.772;12.852;2022-09-09T04:44:25;4.50;;;2.40;;
8488;SDS011;4281;45.772;12.852;2022-09-09T04:46:56;5.87;;;2.63;;
8488;SDS011;4281;45.772;12.852;2022-09-09T04:49:24;4.10;;;2.50;;
8488;SDS011;4281;45.772;12.852;2022-09-09T04:51:53;4.30;;;2.40;;
8488;SDS011;4281;45.772;12.852;2022-09-09T04:54:21;4.43;;;2.53;;
8488;SDS011;4281;45.772;12.852;2022-09-09T04:56:50;3.43;;;2.40;;
8488;SDS011;4281;45.772;12.852;2022-09-09T04:59:18;2.67;;;2.47;;
8488;SDS011;4281;45.772;12.852;2022-09-09T05:01:48;5.20;;;2.83;;
8488;SDS011;4281;45.772;12.852;2022-09-09T05:04:17;2.60;;;2.40;;
8488;SDS011;4281;45.772;12.852;2022-09-09T05:06:45;4.27;;;2.80;;
8488;SDS011;4281;45.772;12.852;2022-09-09T05:09:16;3.70;;;2.70;;
8488;SDS011;4281;45.772;12.852;2022-09-09T05:11:44;2.53;;;2.33;;
8488;SDS011;4281;45.772;12.852;2022-09-09T05:14:12;3.93;;;2.40;;
8488;SDS011;4281;45.772;12.852;2022-09-09T05:16:41;4.43;;;2.50;;
8488;SDS011;4281;45.772;12.852;2022-09-09T05:19:12;3.13;;;2.60;;
8488;SDS011;4281;45.772;12.852;2022-09-09T05:21:40;4.40;;;2.90;;
8488;SDS011;4281;45.772;12.852;2022-09-09T05:26:40;5.63;;;3.07;;
8488;SDS011;4281;45.772;12.852;2022-09-09T05:29:08;4.17;;;2.90;;
8488;SDS011;4281;45.772;12.852;2022-09-09T05:31:37;2.87;;;2.40;;
8488;SDS011;4281;45.772;12.852;2022-09-09T05:34:05;5.53;;;2.67;;
8488;SDS011;4281;45.772;12.852;2022-09-09T05:36:35;5.23;;;2.80;;
8488;SDS011;4281;45.772;12.852;2022-09-09T05:39:04;3.07;;;2.30;;
8488;SDS011;4281;45.772;12.852;2022-09-09T05:41:32;2.50;;;2.30;;
8488;SDS011;4281;45.772;12.852;2022-09-09T05:44:02;4.23;;;2.53;;
8488;SDS011;4281;45.772;12.852;2022-09-09T05:46:30;3.57;;;2.33;;
8488;SDS011;4281;45.772;12.852;2022-09-09T05:48:59;3.77;;;2.20;;
8488;SDS011;4281;45.772;12.852;2022-09-09T05:51:28;2.53;;;2.33;;
8488;SDS011;4281;45.772;12.852;2022-09-09T05:53:58;5.60;;;2.47;;
8488;SDS011;4281;45.772;12.852;2022-09-09T05:56:27;3.70;;;2.30;;
8488;SDS011;4281;45.772;12.852;2022-09-09T05:58:56;6.20;;;2.33;;
8488;SDS011;4281;45.772;12.852;2022-09-09T06:01:26;2.40;;;2.20;;
8488;SDS011;4281;45.772;12.852;2022-09-09T06:03:56;2.00;;;1.80;;
8488;SDS011;4281;45.772;12.852;2022-09-09T06:06:26;2.97;;;2.07;;
8488;SDS011;4281;45.772;12.852;2022-09-09T06:08:59;5.03;;;2.10;;
8488;SDS011;4281;45.772;12.852;2022-09-09T06:11:28;2.83;;;1.90;;
8488;SDS011;4281;45.772;12.852;2022-09-09T06:13:58;3.17;;;2.20;;
8488;SDS011;4281;45.772;12.852;2022-09-09T06:16:28;2.67;;;2.00;;
8488;SDS011;4281;45.772;12.852;2022-09-09T06:18:59;3.97;;;2.23;;
8488;SDS011;4281;45.772;12.852;2022-09-09T06:21:30;5.33;;;2.30;;
8488;SDS011;4281;45.772;12.852;2022-09-09T06:26:47;5.43;;;2.50;;
8488;SDS011;4281;45.772;12.852;2022-09-09T06:29:16;6.17;;;2.60;;
8488;SDS011;4281;45.772;12.852;2022-09-09T06:31:44;4.37;;;2.47;;
8488;SDS011;4281;45.772;12.852;2022-09-09T06:34:14;2.70;;;2.50;;
8488;SDS011;4281;45.772;12.852;2022-09-09T06:36:42;3.13;;;2.53;;
8488;SDS011;4281;45.772;12.852;2022-09-09T06:39:12;4.30;;;2.37;;
8488;SDS011;4281;45.772;12.852;2022-09-09T06:41:41;4.17;;;2.47;;
8488;SDS011;4281;45.772;12.852;2022-09-09T06:44:11;3.53;;;2.50;;
8488;SDS011;4281;45.772;12.852;2022-09-09T06:46:40;2.90;;;2.43;;
8488;SDS011;4281;45.772;12.852;2022-09-09T06:49:08;6.10;;;3.23;;
8488;SDS011;4281;45.772;12.852;2022-09-09T06:51:37;3.93;;;2.77;;
8488;SDS011;4281;45.772;12.852;2022-09-09T06:54:09;2.90;;;2.57;;
8488;SDS011;4281;45.772;12.852;2022-09-09T06:56:39;3.53;;;2.73;;
8488;SDS011;4281;45.772;12.852;2022-09-09T06:59:09;5.03;;;3.47;;
8488;SDS011;4281;45.772;12.852;2022-09-09T07:01:40;6.13;;;3.23;;
8488;SDS011;4281;45.772;12.852;2022-09-09T07:04:10;4.40;;;3.23;;
8488;SDS011;4281;45.772;12.852;2022-09-09T07:06:39;9.70;;;3.07;;
8488;SDS011;4281;45.772;12.852;2022-09-09T07:09:10;4.73;;;3.50;;
8488;SDS011;4281;45.772;12.852;2022-09-09T07:11:40;5.43;;;3.20;;
8488;SDS011;4281;45.772;12.852;2022-09-09T07:14:10;3.60;;;3.10;;
8488;SDS011;4281;45.772;12.852;2022-09-09T07:16:40;5.10;;;3.10;;
8488;SDS011;4281;45.772;12.852;2022-09-09T07:19:09;5.03;;;3.00;;
8488;SDS011;4281;45.772;12.852;2022-09-09T07:21:37;3.63;;;3.10;;
8488;SDS011;4281;45.772;12.852;2022-09-09T07:26:49;4.00;;;3.03;;
8488;SDS011;4281;45.772;12.852;2022-09-09T07:29:19;3.60;;;3.00;;
8488;SDS011;4281;45.772;12.852;2022-09-09T07:31:49;3.20;;;2.90;;
8488;SDS011;4281;45.772;12.852;2022-09-09T07:34:18;3.10;;;2.80;;
8488;SDS011;4281;45.772;12.852;2022-09-09T07:36:46;4.33;;;3.13;;
8488;SDS011;4281;45.772;12.852;2022-09-09T07:39:15;3.20;;;2.90;;
8488;SDS011;4281;45.772;12.852;2022-09-09T07:41:44;4.57;;;3.27;;
8488;SDS011;4281;45.772;12.852;2022-09-09T07:44:14;3.10;;;2.90;;
8488;SDS011;4281;45.772;12.852;2022-09-09T07:46:45;3.33;;;2.97;;
8488;SDS011;4281;45.772;12.852;2022-09-09T07:49:14;4.70;;;3.40;;
8488;SDS011;4281;45.772;12.852;2022-09-09T07:51:51;5.23;;;3.07;;
8488;SDS011;4281;45.772;12.852;2022-09-09T07:54:21;3.50;;;3.20;;
8488;SDS011;4281;45.772;12.852;2022-09-09T07:56:50;3.53;;;2.97;;
8488;SDS011;4281;45.772;12.852;2022-09-09T07:59:19;3.83;;;2.97;;
8488;SDS011;4281;45.772;12.852;2022-09-09T08:01:51;4.00;;;2.97;;
8488;SDS011;4281;45.772;12.852;2022-09-09T08:04:22;4.17;;;3.30;;
8488;SDS011;4281;45.772;12.852;2022-09-09T08:06:52;5.07;;;4.03;;
8488;SDS011;4281;45.772;12.852;2022-09-09T08:09:21;3.40;;;2.70;;
8488;SDS011;4281;45.772;12.852;2022-09-09T08:11:51;5.93;;;3.47;;
8488;SDS011;4281;45.772;12.852;2022-09-09T08:14:19;4.13;;;3.20;;
8488;SDS011;4281;45.772;12.852;2022-09-09T08:16:49;3.90;;;3.50;;
8488;SDS011;4281;45.772;12.852;2022-09-09T08:19:22;4.50;;;3.47;;
8488;SDS011;4281;45.772;12.852;2022-09-09T08:21:51;5.67;;;3.60;;
8488;SDS011;4281;45.772;12.852;2022-09-09T08:27:01;3.73;;;3.37;;
8488;SDS011;4281;45.772;12.852;2022-09-09T08:29:29;4.43;;;3.57;;
8488;SDS011;4281;45.772;12.852;2022-09-09T08:31:59;4.27;;;3.33;;
8488;SDS011;4281;45.772;12.852;2022-09-09T08:34:29;4.03;;;3.30;;
8488;SDS011;4281;45.772;12.852;2022-09-09T08:36:58;5.00;;;3.20;;
8488;SDS011;4281;45.772;12.852;2022-09-09T08:39:27;6.47;;;3.50;;
8488;SDS011;4281;45.772;12.852;2022-09-09T08:42:11;5.47;;;3.00;;
8488;SDS011;4281;45.772;12.852;2022-09-09T08:44:56;5.10;;;2.80;;
8488;SDS011;4281;45.772;12.852;2022-09-09T08:47:33;4.90;;;3.20;;
8488;SDS011;4281;45.772;12.852;2022-09-09T08:50:19;3.80;;;2.83;;
8488;SDS011;4281;45.772;12.852;2022-09-09T08:52:54;3.13;;;2.53;;
8488;SDS011;4281;45.772;12.852;2022-09-09T08:55:30;5.87;;;3.47;;
8488;SDS011;4281;45.772;12.852;2022-09-09T08:58:08;7.07;;;3.23;;
8488;SDS011;4281;45.772;12.852;2022-09-09T09:00:42;6.20;;;2.93;;
8488;SDS011;4281;45.772;12.852;2022-09-09T09:03:22;5.87;;;3.10;;
8488;SDS011;4281;45.772;12.852;2022-09-09T09:05:59;3.53;;;2.70;;
8488;SDS011;4281;45.772;12.852;2022-09-09T09:08:36;4.40;;;2.70;;
8488;SDS011;4281;45.772;12.852;2022-09-09T09:11:11;3.13;;;2.50;;
8488;SDS011;4281;45.772;12.852;2022-09-09T09:13:40;3.53;;;2.50;;
8488;SDS011;4281;45.772;12.852;2022-09-09T09:16:18;4.37;;;2.57;;
8488;SDS011;4281;45.772;12.852;2022-09-09T09:18:51;3.10;;;2.50;;
8488;SDS011;4281;45.772;12.852;2022-09-09T09:21:27;3.27;;;2.43;;
8488;SDS011;4281;45.772;12.852;2022-09-09T09:24:01;2.30;;;2.10;;
8488;SDS011;4281;45.772;12.852;2022-09-09T09:26:35;3.37;;;1.60;;
8488;SDS011;4281;45.772;12.852;2022-09-09T09:29:08;2.07;;;1.87;;
8488;SDS011;4281;45.772;12.852;2022-09-09T09:31:41;2.90;;;2.00;;
8488;SDS011;4281;45.772;12.852;2022-09-09T09:34:12;2.40;;;2.20;;
8488;SDS011;4281;45.772;12.852;2022-09-09T09:36:42;2.60;;;1.60;;
8488;SDS011;4281;45.772;12.852;2022-09-09T09:39:22;2.27;;;1.73;;
8488;SDS011;4281;45.772;12.852;2022-09-09T09:42:11;2.33;;;1.83;;
8488;SDS011;4281;45.772;12.852;2022-09-09T09:44:46;2.73;;;2.17;;
8488;SDS011;4281;45.772;12.852;2022-09-09T09:47:15;2.47;;;1.80;;
8488;SDS011;4281;45.772;12.852;2022-09-09T09:49:51;2.80;;;1.83;;
8488;SDS011;4281;45.772;12.852;2022-09-09T09:52:22;2.73;;;2.17;;
8488;SDS011;4281;45.772;12.852;2022-09-09T09:54:52;3.43;;;1.97;;
8488;SDS011;4281;45.772;12.852;2022-09-09T09:57:23;4.53;;;2.33;;
8488;SDS011;4281;45.772;12.852;2022-09-09T10:00:03;4.10;;;2.40;;
8488;SDS011;4281;45.772;12.852;2022-09-09T10:02:40;2.60;;;2.40;;
8488;SDS011;4281;45.772;12.852;2022-09-09T10:05:13;2.10;;;1.90;;
8488;SDS011;4281;45.772;12.852;2022-09-09T10:07:44;3.17;;;2.23;;
8488;SDS011;4281;45.772;12.852;2022-09-09T10:10:14;4.13;;;2.33;;
8488;SDS011;4281;45.772;12.852;2022-09-09T10:12:50;3.50;;;2.80;;
8488;SDS011;4281;45.772;12.852;2022-09-09T10:15:30;7.43;;;5.17;;
8488;SDS011;4281;45.772;12.852;2022-09-09T10:18:11;6.10;;;3.10;;
8488;SDS011;4281;45.772;12.852;2022-09-09T10:20:51;3.80;;;2.17;;
8488;SDS011;4281;45.772;12.852;2022-09-09T10:23:33;6.67;;;3.30;;
8488;SDS011;4281;45.772;12.852;2022-09-09T10:26:18;3.47;;;2.73;;
8488;SDS011;4281;45.772;12.852;2022-09-09T10:29:01;3.57;;;2.60;;
8488;SDS011;4281;45.772;12.852;2022-09-09T10:31:41;2.80;;;2.00;;
8488;SDS011;4281;45.772;12.852;2022-09-09T10:34:22;3.37;;;2.17;;
8488;SDS011;4281;45.772;12.852;2022-09-09T10:37:07;3.60;;;2.10;;
8488;SDS011;4281;45.772;12.852;2022-09-09T10:39:50;2.80;;;2.20;;
8488;SDS011;4281;45.772;12.852;2022-09-09T10:42:26;2.77;;;2.00;;
8488;SDS011;4281;45.772;12.852;2022-09-09T10:45:02;2.07;;;1.77;;
8488;SDS011;4281;45.772;12.852;2022-09-09T10:47:47;3.63;;;2.00;;
8488;SDS011;4281;45.772;12.852;2022-09-09T10:50:29;2.07;;;1.60;;
8488;SDS011;4281;45.772;12.852;2022-09-09T10:53:37;2.93;;;1.60;;
8488;SDS011;4281;45.772;12.852;2022-09-09T10:56:18;4.10;;;2.73;;
8488;SDS011;4281;45.772;12.852;2022-09-09T10:58:50;3.17;;;2.50;;
8488;SDS011;4281;45.772;12.852;2022-09-09T11:01:24;3.47;;;2.30;;
8488;SDS011;4281;45.772;12.852;2022-09-09T11:03:58;3.23;;;1.97;;
8488;SDS011;4281;45.772;12.852;2022-09-09T11:06:32;2.37;;;1.87;;
8488;SDS011;4281;45.772;12.852;2022-09-09T11:09:13;2.57;;;2.00;;
8488;SDS011;4281;45.772;12.852;2022-09-09T11:11:49;2.33;;;1.93;;
8488;SDS011;4281;45.772;12.852;2022-09-09T11:14:22;4.80;;;2.10;;
8488;SDS011;4281;45.772;12.852;2022-09-09T11:17:03;3.63;;;2.50;;
8488;SDS011;4281;45.772;12.852;2022-09-09T11:19:38;3.17;;;2.13;;
8488;SDS011;4281;45.772;12.852;2022-09-09T11:22:08;3.17;;;2.30;;
8488;SDS011;4281;45.772;12.852;2022-09-09T11:27:29;2.10;;;1.90;;
8488;SDS011;4281;45.772;12.852;2022-09-09T11:30:18;2.87;;;1.90;;
8488;SDS011;4281;45.772;12.852;2022-09-09T11:39:18;2.63;;;1.90;;
8488;SDS011;4281;45.772;12.852;2022-09-09T11:42:06;2.00;;;1.80;;
8488;SDS011;4281;45.772;12.852;2022-09-09T11:44:41;4.10;;;2.03;;
8488;SDS011;4281;45.772;12.852;2022-09-09T11:47:15;3.60;;;1.90;;
8488;SDS011;4281;45.772;12.852;2022-09-09T11:49:51;2.63;;;1.53;;
8488;SDS011;4281;45.772;12.852;2022-09-09T11:52:24;3.10;;;1.90;;
8488;SDS011;4281;45.772;12.852;2022-09-09T11:55:08;3.00;;;1.60;;
8488;SDS011;4281;45.772;12.852;2022-09-09T11:57:38;3.23;;;1.57;;
8488;SDS011;4281;45.772;12.852;2022-09-09T12:03:03;3.50;;;1.90;;
8488;SDS011;4281;45.772;12.852;2022-09-09T12:05:35;2.53;;;1.70;;
8488;SDS011;4281;45.772;12.852;2022-09-09T12:08:07;2.63;;;2.20;;
8488;SDS011;4281;45.772;12.852;2022-09-09T12:10:39;2.53;;;1.43;;
8488;SDS011;4281;45.772;12.852;2022-09-09T12:13:09;1.90;;;1.30;;
8488;SDS011;4281;45.772;12.852;2022-09-09T12:15:49;1.40;;;1.30;;
8488;SDS011;4281;45.772;12.852;2022-09-09T12:18:21;2.03;;;1.60;;
8488;SDS011;4281;45.772;12.852;2022-09-09T12:20:54;2.80;;;1.50;;
8488;SDS011;4281;45.772;12.852;2022-09-09T12:23:30;1.50;;;1.37;;
8488;SDS011;4281;45.772;12.852;2022-09-09T12:26:17;2.90;;;1.77;;
8488;SDS011;4281;45.772;12.852;2022-09-09T12:29:09;2.10;;;1.23;;
8488;SDS011;4281;45.772;12.852;2022-09-09T12:31:46;2.67;;;1.70;;
8488;SDS011;4281;45.772;12.852;2022-09-09T12:34:27;3.07;;;1.70;;
8488;SDS011;4281;45.772;12.852;2022-09-09T12:37:03;2.40;;;1.40;;
8488;SDS011;4281;45.772;12.852;2022-09-09T12:39:37;2.23;;;1.40;;
8488;SDS011;4281;45.772;12.852;2022-09-09T12:42:41;1.40;;;1.23;;
8488;SDS011;4281;45.772;12.852;2022-09-09T12:45:15;1.53;;;1.30;;
8488;SDS011;4281;45.772;12.852;2022-09-09T12:47:47;6.57;;;1.77;;
8488;SDS011;4281;45.772;12.852;2022-09-09T12:50:19;4.37;;;1.80;;
8488;SDS011;4281;45.772;12.852;2022-09-09T12:52:49;3.17;;;1.97;;
8488;SDS011;4281;45.772;12.852;2022-09-09T12:55:20;4.60;;;2.00;;
8488;SDS011;4281;45.772;12.852;2022-09-09T12:57:51;3.90;;;2.00;;
8488;SDS011;4281;45.772;12.852;2022-09-09T13:00:21;5.67;;;3.03;;
8488;SDS011;4281;45.772;12.852;2022-09-09T13:02:53;3.47;;;2.10;;
8488;SDS011;4281;45.772;12.852;2022-09-09T13:05:23;5.07;;;2.80;;
8488;SDS011;4281;45.772;12.852;2022-09-09T13:08:00;3.20;;;2.13;;
8488;SDS011;4281;45.772;12.852;2022-09-09T13:10:30;3.33;;;2.37;;
8488;SDS011;4281;45.772;12.852;2022-09-09T13:13:19;5.37;;;3.50;;
8488;SDS011;4281;45.772;12.852;2022-09-09T13:15:50;4.30;;;2.30;;
8488;SDS011;4281;45.772;12.852;2022-09-09T13:18:23;6.20;;;3.20;;
8488;SDS011;4281;45.772;12.852;2022-09-09T13:20:54;5.27;;;3.30;;
8488;SDS011;4281;45.772;12.852;2022-09-09T13:23:25;3.17;;;2.40;;
8488;SDS011;4281;45.772;12.852;2022-09-09T13:25:56;2.83;;;2.03;;
8488;SDS011;4281;45.772;12.852;2022-09-09T13:28:26;5.03;;;2.60;;
8488;SDS011;4281;45.772;12.852;2022-09-09T13:30:59;5.30;;;2.50;;
8488;SDS011;4281;45.772;12.852;2022-09-09T13:33:31;5.60;;;2.60;;
8488;SDS011;4281;45.772;12.852;2022-09-09T13:36:04;4.27;;;2.60;;
8488;SDS011;4281;45.772;12.852;2022-09-09T13:38:37;4.13;;;2.50;;
8488;SDS011;4281;45.772;12.852;2022-09-09T13:41:08;3.67;;;2.20;;
8488;SDS011;4281;45.772;12.852;2022-09-09T13:43:42;2.70;;;1.90;;
8488;SDS011;4281;45.772;12.852;2022-09-09T13:46:24;4.20;;;2.10;;
8488;SDS011;4281;45.772;12.852;2022-09-09T13:48:58;3.57;;;1.93;;
8488;SDS011;4281;45.772;12.852;2022-09-09T13:51:30;5.47;;;2.77;;
8488;SDS011;4281;45.772;12.852;2022-09-09T13:54:03;4.67;;;2.10;;
8488;SDS011;4281;45.772;12.852;2022-09-09T13:56:36;3.30;;;1.97;;
8488;SDS011;4281;45.772;12.852;2022-09-09T13:59:08;4.63;;;2.60;;
8488;SDS011;4281;45.772;12.852;2022-09-09T14:01:39;4.80;;;2.80;;
8488;SDS011;4281;45.772;12.852;2022-09-09T14:04:09;4.10;;;2.33;;
8488;SDS011;4281;45.772;12.852;2022-09-09T14:06:38;6.00;;;2.67;;
8488;SDS011;4281;45.772;12.852;2022-09-09T14:09:09;3.63;;;2.30;;
8488;SDS011;4281;45.772;12.852;2022-09-09T14:11:42;5.07;;;2.40;;
8488;SDS011;4281;45.772;12.852;2022-09-09T14:14:12;3.67;;;2.20;;
8488;SDS011;4281;45.772;12.852;2022-09-09T14:16:40;2.23;;;2.03;;
8488;SDS011;4281;45.772;12.852;2022-09-09T14:19:10;2.83;;;2.17;;
8488;SDS011;4281;45.772;12.852;2022-09-09T14:21:38;5.90;;;3.60;;
8488;SDS011;4281;45.772;12.852;2022-09-09T14:24:06;4.03;;;2.40;;
8488;SDS011;4281;45.772;12.852;2022-09-09T14:26:34;3.77;;;2.10;;
8488;SDS011;4281;45.772;12.852;2022-09-09T14:29:03;4.40;;;2.00;;
8488;SDS011;4281;45.772;12.852;2022-09-09T14:31:31;1.90;;;1.80;;
8488;SDS011;4281;45.772;12.852;2022-09-09T14:34:00;1.77;;;1.67;;
8488;SDS011;4281;45.772;12.852;2022-09-09T14:36:29;2.73;;;1.83;;
8488;SDS011;4281;45.772;12.852;2022-09-09T14:38:58;4.30;;;1.90;;
8488;SDS011;4281;45.772;12.852;2022-09-09T14:41:26;3.00;;;1.70;;
8488;SDS011;4281;45.772;12.852;2022-09-09T14:43:55;1.73;;;1.30;;
8488;SDS011;4281;45.772;12.852;2022-09-09T14:46:24;1.60;;;1.30;;
8488;SDS011;4281;45.772;12.852;2022-09-09T14:48:52;4.10;;;2.40;;
8488;SDS011;4281;45.772;12.852;2022-09-09T14:51:21;6.03;;;3.17;;
8488;SDS011;4281;45.772;12.852;2022-09-09T14:53:52;2.00;;;1.40;;
8488;SDS011;4281;45.772;12.852;2022-09-09T14:56:23;2.67;;;2.10;;
8488;SDS011;4281;45.772;12.852;2022-09-09T14:58:53;4.13;;;1.70;;
8488;SDS011;4281;45.772;12.852;2022-09-09T15:01:22;2.83;;;1.40;;
8488;SDS011;4281;45.772;12.852;2022-09-09T15:03:54;2.90;;;1.60;;
8488;SDS011;4281;45.772;12.852;2022-09-09T15:06:24;1.87;;;1.60;;
8488;SDS011;4281;45.772;12.852;2022-09-09T15:08:56;3.33;;;1.40;;
8488;SDS011;4281;45.772;12.852;2022-09-09T15:11:25;4.73;;;2.50;;
8488;SDS011;4281;45.772;12.852;2022-09-09T15:13:57;2.77;;;1.60;;
8488;SDS011;4281;45.772;12.852;2022-09-09T15:16:26;2.13;;;1.90;;
8488;SDS011;4281;45.772;12.852;2022-09-09T15:18:55;2.10;;;1.40;;
8488;SDS011;4281;45.772;12.852;2022-09-09T15:21:26;4.17;;;2.13;;
8488;SDS011;4281;45.772;12.852;2022-09-09T15:23:57;2.70;;;1.77;;
8488;SDS011;4281;45.772;12.852;2022-09-09T15:26:26;1.77;;;1.43;;
8488;SDS011;4281;45.772;12.852;2022-09-09T15:28:56;1.97;;;1.50;;
8488;SDS011;4281;45.772;12.852;2022-09-09T15:31:26;3.70;;;1.53;;
8488;SDS011;4281;45.772;12.852;2022-09-09T15:33:56;3.63;;;2.80;;
8488;SDS011;4281;45.772;12.852;2022-09-09T15:36:28;1.93;;;1.80;;
8488;SDS011;4281;45.772;12.852;2022-09-09T15:38:59;3.97;;;2.20;;
8488;SDS011;4281;45.772;12.852;2022-09-09T15:41:29;3.77;;;2.43;;
8488;SDS011;4281;45.772;12.852;2022-09-09T15:43:59;2.63;;;1.70;;
8488;SDS011;4281;45.772;12.852;2022-09-09T15:46:28;2.03;;;1.90;;
8488;SDS011;4281;45.772;12.852;2022-09-09T15:49:02;2.00;;;1.33;;
8488;SDS011;4281;45.772;12.852;2022-09-09T15:51:32;4.03;;;1.87;;
8488;SDS011;4281;45.772;12.852;2022-09-09T15:54:10;1.83;;;1.33;;
8488;SDS011;4281;45.772;12.852;2022-09-09T15:56:40;1.97;;;1.50;;